createdAt,value
2022-08-25T00:01:30.992Z,16.30
2022-08-25T00:04:00.317Z,16.30
2022-08-25T00:06:29.449Z,16.30
2022-08-25T00:08:59.727Z,16.30
2022-08-25T00:11:30.639Z,16.20
2022-08-25T00:14:00.970Z,16.30
2022-08-25T00:16:28.549Z,16.20
2022-08-25T00:18:56.862Z,16.20
2022-08-25T00:21:24.578Z,16.20
2022-08-25T00:23:51.911Z,16.10
2022-08-25T00:26:19.319Z,16.20
2022-08-25T00:28:47.204Z,16.10
2022-08-25T00:31:18.153Z,16.10
2022-08-25T00:33:45.959Z,16.00
2022-08-25T00:36:13.592Z,16.00
2022-08-25T00:38:44.524Z,16.00
2022-08-25T00:41:13.421Z,16.00
2022-08-25T00:43:50.630Z,16.00
2022-08-25T00:46:23.413Z,15.90
2022-08-25T00:48:54.176Z,15.90
2022-08-25T00:51:36.161Z,15.90
2022-08-25T00:54:03.913Z,15.80
2022-08-25T00:56:31.779Z,15.80
2022-08-25T00:58:59.442Z,15.80
2022-08-25T01:01:26.963Z,15.80
2022-08-25T01:03:54.329Z,15.80
2022-08-25T01:06:21.763Z,15.70
2022-08-25T01:08:49.027Z,15.70
2022-08-25T01:11:16.326Z,15.70
2022-08-25T01:13:54.243Z,15.60
2022-08-25T01:16:21.541Z,15.70
2022-08-25T01:18:56.765Z,15.60
2022-08-25T01:21:25.253Z,15.60
2022-08-25T01:23:52.960Z,15.60
2022-08-25T01:26:30.576Z,15.60
2022-08-25T01:29:17.912Z,15.60
2022-08-25T01:31:45.720Z,15.60
2022-08-25T01:34:13.370Z,15.50
2022-08-25T01:36:41.142Z,15.50
2022-08-25T01:39:08.597Z,15.40
2022-08-25T01:41:46.493Z,15.40
2022-08-25T01:44:16.629Z,15.40
2022-08-25T01:46:44.245Z,15.50
2022-08-25T01:49:11.603Z,15.50
2022-08-25T01:51:44.798Z,15.50
2022-08-25T01:54:12.097Z,15.50
2022-08-25T01:56:39.397Z,15.50
2022-08-25T01:59:06.648Z,15.40
2022-08-25T02:01:34.475Z,15.40
2022-08-25T02:04:01.797Z,15.40
2022-08-25T02:06:34.960Z,15.30
2022-08-25T02:09:05.952Z,15.30
2022-08-25T02:11:33.760Z,15.40
2022-08-25T02:14:01.055Z,15.30
2022-08-25T02:16:33.055Z,15.30
2022-08-25T02:19:00.453Z,15.30
2022-08-25T02:21:28.113Z,15.40
2022-08-25T02:23:56.882Z,15.30
2022-08-25T02:26:24.140Z,15.20
2022-08-25T02:28:52.041Z,15.20
2022-08-25T02:31:21.350Z,15.20
2022-08-25T02:33:48.761Z,15.20
2022-08-25T02:36:16.405Z,15.20
2022-08-25T02:38:43.657Z,15.20
2022-08-25T02:41:15.736Z,15.20
2022-08-25T02:43:43.317Z,15.10
2022-08-25T02:46:11.438Z,15.10
2022-08-25T02:48:39.310Z,15.20
2022-08-25T02:51:07.393Z,15.10
2022-08-25T02:53:35.104Z,15.20
2022-08-25T02:56:02.502Z,15.10
2022-08-25T02:58:29.758Z,15.10
2022-08-25T03:00:57.051Z,15.20
2022-08-25T03:03:24.868Z,15.10
2022-08-25T03:05:52.136Z,15.10
2022-08-25T03:08:19.405Z,15.10
2022-08-25T03:10:46.682Z,15.10
2022-08-25T03:13:14.684Z,15.10
2022-08-25T03:15:42.465Z,15.10
2022-08-25T03:18:11.663Z,15.10
2022-08-25T03:20:41.368Z,15.10
2022-08-25T03:23:08.633Z,15.10
2022-08-25T03:25:54.630Z,15.10
2022-08-25T03:28:25.048Z,15.00
2022-08-25T03:30:57.648Z,15.00
2022-08-25T03:33:24.906Z,15.00
2022-08-25T03:35:52.212Z,15.00
2022-08-25T03:38:19.469Z,15.00
2022-08-25T03:40:46.824Z,15.00
2022-08-25T03:43:14.090Z,15.00
2022-08-25T03:45:44.843Z,15.00
2022-08-25T03:48:12.501Z,15.00
2022-08-25T03:50:51.610Z,15.00
2022-08-25T03:53:19.878Z,15.00
2022-08-25T03:55:47.557Z,15.00
2022-08-25T03:58:14.829Z,15.00
2022-08-25T04:00:42.324Z,15.00
2022-08-25T04:03:09.774Z,15.00
2022-08-25T04:05:37.082Z,15.00
2022-08-25T04:08:04.691Z,15.00
2022-08-25T04:10:32.073Z,14.90
2022-08-25T04:12:59.783Z,15.00
2022-08-25T04:15:28.481Z,15.00
2022-08-25T04:17:59.032Z,14.90
2022-08-25T04:20:26.479Z,14.90
2022-08-25T04:22:53.731Z,15.00
2022-08-25T04:25:21.016Z,14.90
2022-08-25T04:27:48.330Z,14.90
2022-08-25T04:30:15.680Z,15.00
2022-08-25T04:32:42.946Z,15.00
2022-08-25T04:35:10.550Z,15.00
2022-08-25T04:37:37.818Z,15.00
2022-08-25T04:40:05.799Z,15.00
2022-08-25T04:42:33.466Z,15.00
2022-08-25T04:45:01.922Z,15.00
2022-08-25T04:47:29.202Z,15.00
2022-08-25T04:49:56.536Z,15.00
2022-08-25T04:52:23.779Z,15.00
2022-08-25T04:54:51.041Z,15.00
2022-08-25T04:57:18.291Z,15.00
2022-08-25T04:59:45.565Z,15.00
2022-08-25T05:02:12.818Z,15.00
2022-08-25T05:04:40.262Z,15.00
2022-08-25T05:07:07.588Z,15.00
2022-08-25T05:09:34.978Z,15.00
2022-08-25T05:12:02.395Z,15.00
2022-08-25T05:14:30.950Z,15.00
2022-08-25T05:16:59.200Z,15.10
2022-08-25T05:19:26.552Z,15.10
2022-08-25T05:21:53.994Z,15.10
2022-08-25T05:24:22.122Z,15.10
2022-08-25T05:26:49.397Z,15.20
2022-08-25T05:29:16.778Z,15.20
2022-08-25T05:31:50.149Z,15.20
2022-08-25T05:34:18.898Z,15.30
2022-08-25T05:36:46.897Z,15.30
2022-08-25T05:39:14.576Z,15.30
2022-08-25T05:41:41.846Z,15.40
2022-08-25T05:44:09.646Z,15.40
2022-08-25T05:46:36.975Z,15.50
2022-08-25T05:49:04.262Z,15.50
2022-08-25T05:51:31.505Z,15.50
2022-08-25T05:53:58.789Z,15.60
2022-08-25T05:56:26.038Z,15.60
2022-08-25T05:58:53.296Z,15.60
2022-08-25T06:01:43.444Z,15.70
2022-08-25T06:04:13.744Z,15.80
2022-08-25T06:06:41.258Z,15.90
2022-08-25T06:09:09.519Z,15.90
2022-08-25T06:11:37.669Z,16.00
2022-08-25T06:14:05.097Z,16.00
2022-08-25T06:16:32.935Z,16.10
2022-08-25T06:19:01.167Z,16.20
2022-08-25T06:21:29.030Z,16.30
2022-08-25T06:23:56.530Z,16.30
2022-08-25T06:26:23.889Z,16.40
2022-08-25T06:28:51.438Z,16.50
2022-08-25T06:31:19.572Z,16.60
2022-08-25T06:33:46.956Z,16.70
2022-08-25T06:36:15.223Z,16.70
2022-08-25T06:38:42.551Z,16.80
2022-08-25T06:41:10.817Z,16.90
2022-08-25T06:43:42.573Z,17.00
2022-08-25T06:46:14.049Z,17.10
2022-08-25T06:48:41.562Z,17.10
2022-08-25T06:51:10.207Z,17.20
2022-08-25T06:53:42.283Z,17.30
2022-08-25T06:56:09.710Z,17.40
2022-08-25T06:58:37.028Z,17.40
2022-08-25T07:01:15.894Z,17.50
2022-08-25T07:03:48.291Z,17.60
2022-08-25T07:06:18.505Z,17.60
2022-08-25T07:08:46.764Z,17.70
2022-08-25T07:11:16.567Z,17.80
2022-08-25T07:13:45.456Z,17.90
2022-08-25T07:16:12.922Z,17.90
2022-08-25T07:18:40.315Z,18.10
2022-08-25T07:21:09.177Z,18.10
2022-08-25T07:23:36.998Z,18.20
2022-08-25T07:26:37.464Z,18.30
2022-08-25T07:29:09.499Z,18.40
2022-08-25T07:31:37.549Z,18.40
2022-08-25T07:34:24.237Z,18.50
2022-08-25T07:36:54.511Z,18.60
2022-08-25T07:39:22.737Z,18.70
2022-08-25T07:41:51.991Z,18.80
2022-08-25T07:44:21.226Z,18.90
2022-08-25T07:46:50.233Z,18.90
2022-08-25T07:49:23.191Z,19.00
2022-08-25T07:52:04.494Z,19.10
2022-08-25T07:54:34.795Z,19.20
2022-08-25T07:57:03.828Z,19.30
2022-08-25T07:59:31.222Z,19.40
2022-08-25T08:02:09.261Z,19.40
2022-08-25T08:04:46.128Z,19.50
2022-08-25T08:07:13.393Z,19.60
2022-08-25T08:09:40.671Z,19.60
2022-08-25T08:12:08.229Z,19.70
2022-08-25T08:14:35.616Z,19.70
2022-08-25T08:17:09.218Z,19.80
2022-08-25T08:19:36.648Z,19.90
2022-08-25T08:22:04.420Z,20.00
2022-08-25T08:24:54.779Z,20.00
2022-08-25T08:27:19.782Z,20.10
2022-08-25T08:29:49.335Z,20.20
2022-08-25T08:32:17.951Z,20.30
2022-08-25T08:34:46.942Z,20.40
2022-08-25T08:37:20.296Z,20.40
2022-08-25T08:39:51.427Z,20.50
2022-08-25T08:42:39.714Z,20.60
2022-08-25T08:45:31.236Z,20.70
2022-08-25T08:48:21.141Z,20.80
2022-08-25T08:51:06.774Z,20.90
2022-08-25T08:53:37.299Z,20.90
2022-08-25T08:56:31.508Z,21.00
2022-08-25T08:59:05.254Z,21.10
2022-08-25T09:01:59.229Z,21.20
2022-08-25T09:04:30.406Z,21.30
2022-08-25T09:06:57.662Z,21.30
2022-08-25T09:09:35.495Z,21.30
2022-08-25T09:12:35.960Z,21.40
2022-08-25T09:15:17.206Z,21.40
2022-08-25T09:18:12.017Z,21.40
2022-08-25T09:21:03.018Z,21.50
2022-08-25T09:23:40.004Z,21.60
2022-08-25T09:26:17.138Z,21.60
2022-08-25T09:29:02.117Z,21.70
2022-08-25T09:31:35.672Z,21.80
2022-08-25T09:34:05.182Z,21.90
2022-08-25T09:36:37.542Z,22.00
2022-08-25T09:39:06.204Z,22.10
2022-08-25T09:41:51.538Z,22.20
2022-08-25T09:44:23.304Z,22.30
2022-08-25T09:47:02.186Z,22.40
2022-08-25T09:49:38.918Z,22.50
2022-08-25T09:52:33.793Z,22.60
2022-08-25T09:55:15.833Z,22.70
2022-08-25T09:57:43.129Z,22.80
2022-08-25T10:00:31.778Z,22.90
2022-08-25T10:03:15.760Z,23.10
2022-08-25T10:05:45.998Z,23.10
2022-08-25T10:08:24.754Z,23.20
2022-08-25T10:10:57.377Z,23.20
2022-08-25T10:13:37.386Z,23.20
2022-08-25T10:16:27.039Z,23.30
2022-08-25T10:19:04.829Z,23.40
2022-08-25T10:21:32.190Z,23.50
2022-08-25T10:24:01.544Z,23.60
2022-08-25T10:26:53.074Z,23.70
2022-08-25T10:29:26.430Z,23.90
2022-08-25T10:32:19.157Z,24.00
2022-08-25T10:34:58.422Z,24.10
2022-08-25T10:37:47.510Z,24.20
2022-08-25T10:40:19.581Z,24.30
2022-08-25T10:43:07.737Z,24.30
2022-08-25T10:45:53.719Z,24.40
2022-08-25T10:49:05.321Z,24.40
2022-08-25T10:51:36.275Z,24.40
2022-08-25T10:54:36.825Z,24.40
2022-08-25T10:57:23.181Z,24.40
2022-08-25T10:59:53.459Z,24.40
2022-08-25T11:02:35.713Z,24.40
2022-08-25T11:05:13.765Z,24.40
2022-08-25T11:07:48.263Z,24.30
2022-08-25T11:10:24.709Z,24.40
2022-08-25T11:12:57.367Z,24.50
2022-08-25T11:15:29.600Z,24.60
2022-08-25T11:18:02.161Z,24.80
2022-08-25T11:20:36.337Z,24.90
2022-08-25T11:23:27.518Z,25.10
2022-08-25T11:26:04.313Z,25.20
2022-08-25T11:29:02.576Z,25.40
2022-08-25T11:31:30.065Z,25.40
2022-08-25T11:33:57.400Z,25.50
2022-08-25T11:36:36.931Z,25.60
2022-08-25T11:39:13.056Z,25.50
2022-08-25T11:41:57.308Z,25.40
2022-08-25T11:44:55.124Z,25.40
2022-08-25T11:47:34.417Z,25.50
2022-08-25T11:50:20.941Z,25.70
2022-08-25T11:52:54.010Z,25.80
2022-08-25T11:55:27.215Z,25.80
2022-08-25T11:58:33.750Z,25.60
2022-08-25T12:01:02.080Z,25.60
2022-08-25T12:03:32.497Z,25.60
2022-08-25T12:06:21.381Z,25.50
2022-08-25T12:09:03.438Z,25.40
2022-08-25T12:11:46.106Z,25.30
2022-08-25T12:14:22.306Z,25.40
2022-08-25T12:16:55.775Z,25.50
2022-08-25T12:19:28.826Z,25.60
2022-08-25T12:22:03.356Z,25.70
2022-08-25T12:24:47.790Z,25.90
2022-08-25T12:27:47.953Z,26.00
2022-08-25T12:30:38.342Z,26.00
2022-08-25T12:33:11.991Z,26.10
2022-08-25T12:35:41.187Z,26.00
2022-08-25T12:38:16.989Z,26.10
2022-08-25T12:40:45.433Z,26.20
2022-08-25T12:43:49.642Z,26.30
2022-08-25T12:46:20.142Z,26.50
2022-08-25T12:49:43.594Z,26.50
2022-08-25T12:52:20.990Z,26.60
2022-08-25T12:54:55.717Z,26.50
2022-08-25T12:57:32.234Z,26.20
2022-08-25T13:00:01.945Z,26.00
2022-08-25T13:03:07.225Z,25.80
2022-08-25T13:06:05.736Z,25.80
2022-08-25T13:08:52.725Z,25.90
2022-08-25T13:11:32.207Z,25.80
2022-08-25T13:14:08.114Z,26.00
2022-08-25T13:16:37.638Z,26.10
2022-08-25T13:19:06.842Z,26.20
2022-08-25T13:21:37.225Z,26.20
2022-08-25T13:24:32.117Z,26.30
2022-08-25T13:27:09.482Z,26.40
2022-08-25T13:29:48.993Z,26.30
2022-08-25T13:32:21.547Z,26.40
2022-08-25T13:37:29.822Z,26.60
2022-08-25T13:40:24.752Z,26.60
2022-08-25T13:42:57.470Z,26.60
2022-08-25T13:45:28.279Z,26.60
2022-08-25T13:47:56.261Z,26.70
2022-08-25T13:50:27.032Z,26.80
2022-08-25T13:52:54.368Z,26.70
2022-08-25T13:55:27.425Z,26.80
2022-08-25T13:57:56.772Z,26.90
2022-08-25T14:00:45.331Z,26.80
2022-08-25T14:03:33.449Z,26.90
2022-08-25T14:06:08.717Z,26.90
2022-08-25T14:08:38.690Z,26.90
2022-08-25T14:11:07.965Z,26.70
2022-08-25T14:13:44.540Z,26.80
2022-08-25T14:16:22.729Z,26.90
2022-08-25T14:18:58.755Z,26.90
2022-08-25T14:21:31.263Z,26.90
2022-08-25T14:23:58.823Z,26.70
2022-08-25T14:26:27.234Z,26.50
2022-08-25T14:28:54.496Z,26.30
2022-08-25T14:31:29.545Z,26.20
2022-08-25T14:34:04.935Z,26.00
2022-08-25T14:36:33.115Z,26.00
2022-08-25T14:39:05.606Z,26.00
2022-08-25T14:41:37.234Z,26.00
2022-08-25T14:44:05.170Z,26.10
2022-08-25T14:46:33.822Z,26.20
2022-08-25T14:49:06.123Z,26.20
2022-08-25T14:51:33.525Z,26.30
2022-08-25T14:54:07.549Z,26.40
2022-08-25T14:56:36.345Z,26.40
2022-08-25T14:59:03.591Z,26.30
2022-08-25T15:01:32.575Z,26.30
2022-08-25T15:04:13.044Z,26.20
2022-08-25T15:06:43.487Z,26.10
2022-08-25T15:09:12.506Z,25.90
2022-08-25T15:11:44.359Z,25.70
2022-08-25T15:14:12.393Z,25.60
2022-08-25T15:16:41.867Z,25.60
2022-08-25T15:19:11.719Z,25.50
2022-08-25T15:21:39.478Z,25.40
2022-08-25T15:24:07.321Z,25.30
2022-08-25T15:26:37.732Z,25.20
2022-08-25T15:29:06.188Z,25.20
2022-08-25T15:31:33.474Z,25.10
2022-08-25T15:34:00.977Z,25.00
2022-08-25T15:36:28.347Z,25.00
2022-08-25T15:38:55.615Z,24.90
2022-08-25T15:41:23.132Z,24.80
2022-08-25T15:43:59.630Z,24.80
2022-08-25T15:46:28.691Z,24.80
2022-08-25T15:48:58.064Z,24.90
2022-08-25T15:51:26.429Z,24.90
2022-08-25T15:53:53.759Z,24.90
2022-08-25T15:56:26.804Z,24.90
2022-08-25T15:58:55.338Z,24.90
2022-08-25T16:01:25.637Z,25.00
2022-08-25T16:03:53.397Z,25.00
2022-08-25T16:06:20.845Z,24.90
2022-08-25T16:08:48.265Z,25.00
2022-08-25T16:11:20.230Z,25.00
2022-08-25T16:13:48.893Z,24.90
2022-08-25T16:16:18.252Z,24.90
2022-08-25T16:18:45.842Z,24.90
2022-08-25T16:21:15.206Z,24.80
2022-08-25T16:23:43.104Z,24.80
2022-08-25T16:26:11.197Z,24.80
2022-08-25T16:28:40.838Z,24.80
2022-08-25T16:31:12.223Z,24.70
2022-08-25T16:33:40.009Z,24.70
2022-08-25T16:36:15.995Z,24.60
2022-08-25T16:38:43.622Z,24.60
2022-08-25T16:41:18.921Z,24.50
2022-08-25T16:43:46.295Z,24.50
2022-08-25T16:46:15.468Z,24.50
2022-08-25T16:48:44.560Z,24.40
2022-08-25T16:51:16.606Z,24.40
2022-08-25T16:54:05.154Z,24.40
2022-08-25T16:56:35.141Z,24.30
2022-08-25T16:59:04.592Z,24.20
2022-08-25T17:01:35.261Z,24.20
2022-08-25T17:04:02.970Z,24.10
2022-08-25T17:06:33.233Z,24.10
2022-08-25T17:09:00.618Z,24.00
2022-08-25T17:11:32.835Z,23.90
2022-08-25T17:14:00.909Z,23.80
2022-08-25T17:16:32.413Z,23.80
2022-08-25T17:19:05.394Z,23.80
2022-08-25T17:21:35.922Z,23.70
2022-08-25T17:24:04.967Z,23.60
2022-08-25T17:26:32.777Z,23.60
2022-08-25T17:29:01.055Z,23.50
2022-08-25T17:31:29.936Z,23.40
2022-08-25T17:33:57.510Z,23.40
2022-08-25T17:36:27.009Z,23.30
2022-08-25T17:38:56.833Z,23.20
2022-08-25T17:41:24.505Z,23.10
2022-08-25T17:43:51.779Z,23.10
2022-08-25T17:46:19.063Z,23.00
2022-08-25T17:48:46.466Z,23.00
2022-08-25T17:51:15.860Z,22.90
2022-08-25T17:53:43.835Z,22.80
2022-08-25T17:56:16.238Z,22.80
2022-08-25T17:58:44.492Z,22.70
2022-08-25T18:01:19.496Z,22.70
2022-08-25T18:03:49.709Z,22.50
2022-08-25T18:06:17.034Z,22.50
2022-08-25T18:08:44.638Z,22.40
2022-08-25T18:11:20.111Z,22.40
2022-08-25T18:13:47.389Z,22.30
2022-08-25T18:16:17.762Z,22.30
2022-08-25T18:18:45.041Z,22.20
2022-08-25T18:21:13.670Z,22.10
2022-08-25T18:23:42.402Z,22.10
2022-08-25T18:26:10.566Z,22.00
2022-08-25T18:28:40.554Z,22.00
2022-08-25T18:31:12.158Z,21.90
2022-08-25T18:33:42.136Z,21.80
2022-08-25T18:36:09.615Z,21.80
2022-08-25T18:38:57.773Z,21.80
2022-08-25T18:41:26.639Z,21.70
2022-08-25T18:43:53.979Z,21.60
2022-08-25T18:46:22.599Z,21.60
2022-08-25T18:48:52.783Z,21.50
2022-08-25T18:51:23.193Z,21.50
2022-08-25T18:53:51.386Z,21.40
2022-08-25T18:56:22.641Z,21.40
2022-08-25T18:58:49.913Z,21.40
2022-08-25T19:01:19.004Z,21.30
2022-08-25T19:03:46.389Z,21.30
2022-08-25T19:06:13.774Z,21.30
2022-08-25T19:08:41.711Z,21.30
2022-08-25T19:11:09.826Z,21.20
2022-08-25T19:13:38.107Z,21.20
2022-08-25T19:16:14.047Z,21.20
2022-08-25T19:18:45.411Z,21.10
2022-08-25T19:21:12.755Z,21.10
2022-08-25T19:23:40.033Z,21.10
2022-08-25T19:26:16.938Z,21.10
2022-08-25T19:28:48.570Z,21.10
2022-08-25T19:31:18.513Z,21.10
2022-08-25T19:33:47.693Z,21.00
2022-08-25T19:36:15.375Z,21.00
2022-08-25T19:38:44.103Z,21.10
2022-08-25T19:41:14.484Z,21.10
2022-08-25T19:43:55.321Z,21.00
2022-08-25T19:46:33.299Z,21.00
2022-08-25T19:49:14.914Z,21.00
2022-08-25T19:51:44.582Z,21.00
2022-08-25T19:54:17.001Z,21.00
2022-08-25T19:56:55.037Z,21.00
2022-08-25T19:59:25.908Z,21.00
2022-08-25T20:01:54.082Z,21.00
2022-08-25T20:04:24.209Z,20.90
2022-08-25T20:06:53.027Z,20.90
2022-08-25T20:09:39.302Z,20.90
2022-08-25T20:12:09.564Z,20.90
2022-08-25T20:14:37.508Z,20.80
2022-08-25T20:17:23.546Z,20.80
2022-08-25T20:19:56.963Z,20.80
2022-08-25T20:22:26.977Z,20.80
2022-08-25T20:24:57.865Z,20.80
2022-08-25T20:27:35.327Z,20.80
2022-08-25T20:30:04.247Z,20.80
2022-08-25T20:32:32.507Z,20.80
2022-08-25T20:35:00.786Z,20.80
2022-08-25T20:37:28.100Z,20.70
2022-08-25T20:39:55.705Z,20.70
2022-08-25T20:42:23.052Z,20.70
2022-08-25T20:44:50.362Z,20.70
2022-08-25T20:47:20.897Z,20.60
2022-08-25T20:49:48.921Z,20.70
2022-08-25T20:52:18.483Z,20.60
2022-08-25T20:54:46.943Z,20.70
2022-08-25T20:57:18.363Z,20.60
2022-08-25T20:59:51.957Z,20.60
2022-08-25T21:02:19.306Z,20.60
2022-08-25T21:04:48.940Z,20.60
2022-08-25T21:07:18.432Z,20.50
2022-08-25T21:09:46.103Z,20.50
2022-08-25T21:12:13.362Z,20.50
2022-08-25T21:14:41.628Z,20.50
2022-08-25T21:17:12.689Z,20.50
2022-08-25T21:19:40.185Z,20.40
2022-08-25T21:22:10.812Z,20.40
2022-08-25T21:24:38.412Z,20.30
2022-08-25T21:27:06.181Z,20.30
2022-08-25T21:29:33.631Z,20.30
2022-08-25T21:32:00.913Z,20.30
2022-08-25T21:34:29.062Z,20.30
2022-08-25T21:36:57.853Z,20.20
2022-08-25T21:39:32.079Z,20.20
2022-08-25T21:42:00.487Z,20.10
2022-08-25T21:44:29.024Z,20.10
2022-08-25T21:46:56.576Z,20.10
2022-08-25T21:49:25.045Z,20.00
2022-08-25T21:52:00.341Z,20.00
2022-08-25T21:54:29.147Z,20.00
2022-08-25T21:57:01.222Z,20.00
2022-08-25T21:59:34.993Z,19.90
2022-08-25T22:02:05.758Z,19.90
2022-08-25T22:04:33.549Z,19.80
2022-08-25T22:07:01.008Z,19.80
2022-08-25T22:09:29.812Z,19.80
2022-08-25T22:11:57.169Z,19.80
2022-08-25T22:14:26.422Z,19.80
2022-08-25T22:16:54.795Z,19.70
2022-08-25T22:19:22.746Z,19.70
2022-08-25T22:21:50.327Z,19.60
2022-08-25T22:24:18.644Z,19.60
2022-08-25T22:26:48.508Z,19.50
2022-08-25T22:29:25.773Z,19.50
2022-08-25T22:31:59.462Z,19.50
2022-08-25T22:34:33.105Z,19.50
2022-08-25T22:37:04.092Z,19.50
2022-08-25T22:39:31.778Z,19.40
2022-08-25T22:41:59.780Z,19.40
2022-08-25T22:44:27.121Z,19.40
2022-08-25T22:46:54.409Z,19.40
2022-08-25T22:49:21.682Z,19.30
2022-08-25T22:51:49.097Z,19.30
2022-08-25T22:54:16.513Z,19.20
2022-08-25T22:56:43.796Z,19.20
2022-08-25T22:59:12.435Z,19.20
2022-08-25T23:01:39.832Z,19.20
2022-08-25T23:04:07.592Z,19.20
2022-08-25T23:06:35.110Z,19.10
2022-08-25T23:09:04.146Z,19.10
2022-08-25T23:11:31.575Z,19.00
2022-08-25T23:14:02.300Z,19.00
2022-08-25T23:16:31.548Z,19.00
2022-08-25T23:18:59.206Z,19.00
2022-08-25T23:21:45.290Z,18.90
2022-08-25T23:24:30.192Z,18.90
2022-08-25T23:26:58.690Z,18.90
2022-08-25T23:29:27.467Z,18.80
2022-08-25T23:31:54.808Z,18.80
2022-08-25T23:34:22.122Z,18.80
2022-08-25T23:36:49.503Z,18.80
2022-08-25T23:39:16.719Z,18.70
2022-08-25T23:41:44.382Z,18.70
2022-08-25T23:44:17.495Z,18.70
2022-08-25T23:46:47.173Z,18.60
2022-08-25T23:49:18.339Z,18.60
2022-08-25T23:51:47.232Z,18.50
2022-08-25T23:54:14.695Z,18.50
2022-08-25T23:56:51.362Z,18.50
2022-08-25T23:59:20.551Z,18.50
